Time;durP1;ratioP1;P1;durP2;ratioP2;P2;SDS_P1;SDS_P2;PMS_P1;PMS_P2;Temp;Humidity;BMP_temperature;BMP_pressure;BME280_temperature;BME280_humidity;BME280_pressure;Samples;Min_cycle;Max_cycle;Signal;HPM_P1;HPM_P2
2023/01/27 00:00:49;;;;;;;16.50;10.87;;;-1.20;99.90;;;-1.87;91.02;98160.69;5094613;28;20456;-74
2023/01/27 00:03:19;;;;;;;23.40;13.70;;;-1.10;99.90;;;-1.66;90.88;98177.53;5087531;28;20453;-75
2023/01/27 00:05:47;;;;;;;19.23;12.53;;;-1.10;99.90;;;-2.17;90.47;98124.47;5087347;28;20604;-74
2023/01/27 00:08:15;;;;;;;21.37;12.07;;;-1.00;99.90;;;-1.79;90.98;98191.81;5085794;28;20450;-74
2023/01/27 00:10:43;;;;;;;22.27;13.17;;;-1.00;99.90;;;-1.64;90.40;98183.53;5099365;28;20563;-75
2023/01/27 00:13:26;;;;;;;22.37;11.30;;;-0.90;99.90;;;-1.62;90.48;98168.31;5097074;28;20461;-73
2023/01/27 00:15:54;;;;;;;18.40;12.30;;;-1.00;99.90;;;-1.90;90.87;98165.41;5097858;28;20485;-74
2023/01/27 00:18:23;;;;;;;21.77;13.63;;;-1.10;99.90;;;-1.79;91.02;98175.94;5094936;28;20469;-75
2023/01/27 00:26:20;;;;;;;24.50;13.50;;;-1.00;99.90;;;-1.57;90.67;98158.19;5092853;28;20949;-75
2023/01/27 00:28:48;;;;;;;21.70;13.00;;;-0.90;99.90;;;-1.74;90.50;98146.41;5088149;28;20451;-76
2023/01/27 00:34:09;;;;;;;19.33;13.13;;;-1.00;99.90;;;-1.87;90.90;98138.69;5098065;27;20458;-76
2023/01/27 00:36:37;;;;;;;21.37;12.27;;;-1.00;99.90;;;-1.68;90.33;98166.22;5079686;28;20539;-77
2023/01/27 00:39:05;;;;;;;22.33;13.70;;;-1.00;99.90;;;-1.81;90.57;98151.38;5088607;28;21079;-77
2023/01/27 00:41:34;;;;;;;20.77;13.17;;;-1.10;99.90;;;-1.65;90.69;98171.25;5079798;28;20473;-75
2023/01/27 00:44:04;;;;;;;24.13;15.07;;;-1.00;99.90;;;-1.64;89.76;98167.63;5080053;28;20460;-76
2023/01/27 00:46:31;;;;;;;19.90;13.20;;;-1.00;99.90;;;-1.50;89.15;98167.25;5073866;28;20924;-76
2023/01/27 00:48:58;;;;;;;19.73;12.60;;;-0.90;99.90;;;-1.53;89.80;98153.44;5081579;28;20467;-77
2023/01/27 00:51:28;;;;;;;24.10;14.70;;;-0.90;99.90;;;-1.38;89.02;98151.25;5076747;28;20446;-76
2023/01/27 00:53:58;;;;;;;17.10;11.40;;;-0.80;99.90;;;-1.52;88.93;98161.25;5087862;28;20890;-74
2023/01/27 00:56:27;;;;;;;17.83;11.17;;;-0.80;99.80;;;-1.64;90.01;98163.19;5083949;28;20450;-79
2023/01/27 00:58:54;;;;;;;21.97;12.90;;;-0.90;99.70;;;-1.46;89.60;98160.69;5084804;28;20477;-76
2023/01/27 01:01:21;;;;;;;20.83;13.23;;;-0.90;99.90;;;-1.53;89.28;98169.34;5081262;28;20457;-73
2023/01/27 01:03:48;;;;;;;21.27;12.77;;;-0.90;99.90;;;-1.63;88.49;98164.84;5079501;28;20457;-75
2023/01/27 01:06:17;;;;;;;22.87;13.47;;;-0.90;98.80;;;-1.77;89.98;98168.69;5080422;28;20453;-76
2023/01/27 01:08:47;;;;;;;22.83;12.93;;;-1.00;98.60;;;-1.71;89.20;98168.16;5089385;28;20458;-75
2023/01/27 01:11:17;;;;;;;21.27;15.10;;;-1.00;99.90;;;-1.59;89.63;98181.34;5076108;28;20480;-75
2023/01/27 01:13:46;;;;;;;20.60;12.27;;;-1.00;99.90;;;-1.83;89.53;98184.28;5083230;28;20578;-73
2023/01/27 01:16:16;;;;;;;21.83;13.90;;;-1.00;99.00;;;-1.73;90.31;98183.38;5082878;28;20470;-74
2023/01/27 01:18:44;;;;;;;21.07;12.63;;;-1.00;99.90;;;-2.02;90.71;98165.53;5084367;28;20468;-73
2023/01/27 01:21:13;;;;;;;23.17;13.83;;;-1.10;99.90;;;-1.89;90.75;98183.03;5082763;28;20457;-75
2023/01/27 01:23:45;;;;;;;23.80;13.63;;;-1.10;99.90;;;-1.64;89.84;98175.56;5085753;28;20449;-76
2023/01/27 01:26:17;;;;;;;18.83;13.13;;;-1.00;99.90;;;-1.83;90.92;98168.38;5087311;28;20457;-74
2023/01/27 01:28:45;;;;;;;19.57;13.57;;;-1.00;99.90;;;-1.66;90.48;98148.38;5083148;28;20458;-77
2023/01/27 01:31:16;;;;;;;24.20;15.00;;;-0.90;99.90;;;-1.61;89.04;98172.66;5076247;28;20512;-76
2023/01/27 01:33:43;;;;;;;22.70;13.50;;;-0.90;99.90;;;-1.89;90.21;98167.13;5082817;28;20493;-75
2023/01/27 01:36:13;;;;;;;23.67;15.40;;;-1.00;99.00;;;-1.52;89.80;98181.59;5065411;28;20471;-74
2023/01/27 01:38:41;;;;;;;24.73;14.00;;;-1.00;99.90;;;-1.89;90.42;98181.19;5083024;28;20831;-75
2023/01/27 01:41:13;;;;;;;26.20;14.80;;;-1.00;99.40;;;-1.81;90.31;98164.63;5073760;28;20457;-75
2023/01/27 01:43:41;;;;;;;23.43;14.30;;;-1.00;99.50;;;-1.65;89.56;98169.44;5081724;28;20579;-77
2023/01/27 01:46:09;;;;;;;23.80;15.03;;;-1.00;99.90;;;-1.59;88.91;98176.03;5065432;28;20542;-76
2023/01/27 01:48:41;;;;;;;27.87;16.47;;;-0.90;99.30;;;-1.49;89.07;98184.00;5074987;28;20435;-76
2023/01/27 01:51:13;;;;;;;25.50;15.97;;;-0.90;99.40;;;-1.70;89.34;98169.00;5081464;28;20556;-76
2023/01/27 01:53:47;;;;;;;30.53;15.77;;;-1.00;98.20;;;-1.62;89.48;98170.97;5084287;28;21326;-75
2023/01/27 01:56:22;;;;;;;28.60;16.20;;;-0.90;99.70;;;-1.33;88.41;98175.53;5079414;28;20936;-74
2023/01/27 01:58:50;;;;;;;23.67;14.83;;;-0.80;99.90;;;-1.56;89.19;98154.56;5083099;28;20477;-75
2023/01/27 02:01:18;;;;;;;22.67;15.13;;;-0.80;98.50;;;-1.35;87.72;98157.13;5086774;28;20502;-74
2023/01/27 02:03:50;;;;;;;27.77;14.97;;;-0.80;97.60;;;-2.05;89.20;98122.56;5089576;28;20451;-75
2023/01/27 02:06:18;;;;;;;25.37;15.50;;;-0.90;96.90;;;-1.56;89.31;98165.16;5080516;28;20516;-74
2023/01/27 02:08:48;;;;;;;26.13;16.00;;;-0.90;98.80;;;-1.76;90.58;98165.06;5087391;28;20459;-76
2023/01/27 02:11:17;;;;;;;26.23;16.97;;;-1.00;98.70;;;-2.10;89.84;98101.78;5080489;28;20507;-75
2023/01/27 02:13:45;;;;;;;27.97;16.00;;;-1.00;99.50;;;-1.75;90.21;98171.22;5079708;28;20468;-75
2023/01/27 02:16:13;;;;;;;25.33;15.00;;;-1.10;99.90;;;-1.83;90.50;98171.03;5079886;28;20447;-76
2023/01/27 02:18:42;;;;;;;29.57;16.93;;;-1.00;99.90;;;-1.63;89.91;98169.31;5089199;28;20461;-77
2023/01/27 02:21:10;;;;;;;28.20;15.50;;;-1.00;99.90;;;-1.61;90.25;98168.22;5085368;28;20878;-76
2023/01/27 02:24:05;;;;;;;25.33;16.23;;;-0.90;99.90;;;-1.44;90.13;98164.09;5084132;28;20465;-76
2023/01/27 02:26:40;;;;;;;25.03;16.00;;;-0.80;99.90;;;-1.59;88.83;98134.44;5078666;28;20507;-76
2023/01/27 02:29:09;;;;;;;26.37;14.10;;;-0.80;99.90;;;-1.86;89.09;98130.59;5077970;28;20480;-77
2023/01/27 02:31:37;;;;;;;27.50;15.63;;;-0.80;97.30;;;-1.46;88.66;98176.59;5081348;28;20461;-77
2023/01/27 02:34:09;;;;;;;28.17;15.13;;;-0.80;97.70;;;-1.53;88.43;98169.34;5079198;28;20500;-76
2023/01/27 02:36:43;;;;;;;28.23;16.40;;;-0.70;95.50;;;-1.82;89.59;98172.69;5085428;28;20481;-77
2023/01/27 02:39:14;;;;;;;29.37;16.03;;;-0.90;95.20;;;-1.78;90.02;98174.97;5083273;28;20560;-77
2023/01/27 02:41:46;;;;;;;29.83;15.90;;;-1.00;96.90;;;-1.55;89.31;98158.88;5096982;28;20461;-77
2023/01/27 02:44:13;;;;;;;29.87;17.13;;;-0.90;99.80;;;-1.70;89.60;98169.00;5075441;28;20452;-77
2023/01/27 02:46:42;;;;;;;30.80;16.80;;;-0.90;98.20;;;-1.85;90.22;98173.81;5079194;28;20469;-78
2023/01/27 02:49:09;;;;;;;31.40;17.50;;;-1.00;98.30;;;-1.90;90.13;98173.38;5086107;28;21002;-76
2023/01/27 02:51:38;;;;;;;29.43;16.40;;;-1.10;98.60;;;-1.66;89.27;98166.91;5076739;28;20460;-75
2023/01/27 02:54:05;;;;;;;24.53;14.30;;;-1.00;99.90;;;-1.82;89.88;98170.91;5095856;28;20458;-74
2023/01/27 02:56:33;;;;;;;33.57;15.70;;;-1.00;97.80;;;-1.80;89.54;98162.84;5072912;28;20460;-75
2023/01/27 02:59:02;;;;;;;26.87;15.83;;;-1.00;98.50;;;-1.70;88.65;98166.34;5084240;28;20469;-76
2023/01/27 03:01:31;;;;;;;27.07;16.03;;;-1.00;98.10;;;-1.62;88.17;98171.84;5098448;27;20779;-75
2023/01/27 03:03:58;;;;;;;27.77;14.77;;;-0.90;95.70;;;-1.64;87.56;98147.28;5101273;28;20462;-75
2023/01/27 03:06:26;;;;;;;26.93;14.53;;;-0.80;94.90;;;-1.44;87.04;98174.69;5074413;28;20808;-75
2023/01/27 03:08:53;;;;;;;27.97;15.83;;;-0.80;94.50;;;-1.85;87.44;98108.44;5087929;28;20473;-77
2023/01/27 03:14:03;;;;;;;28.27;15.83;;;-0.70;93.60;;;-1.56;86.29;98162.50;5099167;28;20519;-75
2023/01/27 03:19:15;;;;;;;27.00;15.50;;;-0.70;92.90;;;-1.44;86.32;98171.19;5113403;27;20524;-75
2023/01/27 03:21:44;;;;;;;28.03;16.70;;;-0.80;93.20;;;-1.59;86.35;98141.59;5095693;28;20466;-75
2023/01/27 03:24:11;;;;;;;28.30;15.40;;;-0.80;93.50;;;-1.34;86.22;98171.22;5089826;28;20581;-78
2023/01/27 03:26:38;;;;;;;25.60;14.97;;;-0.70;93.00;;;-1.41;85.57;98156.84;5089285;28;20457;-76
2023/01/27 03:31:51;;;;;;;27.73;13.63;;;-0.70;92.50;;;-1.65;87.23;98155.34;5082663;28;20961;-76
2023/01/27 03:34:19;;;;;;;22.00;13.73;;;-0.90;93.00;;;-1.73;87.22;98159.53;5092713;28;20475;-77
2023/01/27 03:47:46;;;;;;;24.03;13.87;;;-0.90;93.70;;;-1.57;86.24;98164.31;5080353;28;20970;-75
2023/01/27 03:50:18;;;;;;;25.03;14.83;;;-0.90;93.30;;;-1.34;84.96;98165.91;5087344;28;20454;-76
2023/01/27 03:53:01;;;;;;;21.47;12.60;;;-0.70;92.20;;;-1.73;83.67;98113.63;5085769;28;20462;-75
2023/01/27 03:55:29;;;;;;;20.20;12.43;;;-0.60;90.40;;;-1.40;84.30;98163.81;5087661;28;20452;-77
2023/01/27 03:58:04;;;;;;;24.17;13.40;;;-0.60;90.30;;;-1.66;85.46;98161.63;5088483;28;20533;-76
2023/01/27 04:00:33;;;;;;;26.47;12.53;;;-0.80;90.20;;;-1.57;85.29;98158.19;5083115;28;20796;-76
2023/01/27 04:08:30;;;;;;;20.50;13.20;;;-0.80;91.40;;;-1.60;85.44;98166.38;5087091;28;20488;-77
2023/01/27 04:13:47;;;;;;;20.93;12.20;;;-0.80;91.40;;;-1.56;84.32;98141.31;5080265;28;20535;-78
2023/01/27 04:16:18;;;;;;;21.20;12.37;;;-0.80;90.20;;;-1.46;84.36;98167.84;5072540;28;20462;-76
2023/01/27 04:18:46;;;;;;;20.90;12.20;;;-0.80;91.10;;;-1.48;83.75;98161.84;5088420;28;20456;-77
2023/01/27 04:21:13;;;;;;;22.47;12.73;;;-0.80;90.50;;;-1.43;84.75;98176.38;5098100;28;20545;-76
2023/01/27 04:23:41;;;;;;;20.93;12.97;;;-0.80;91.40;;;-1.36;84.23;98146.66;5076759;28;20467;-75
2023/01/27 04:26:08;;;;;;;23.00;12.00;;;-0.70;91.40;;;-1.34;84.13;98161.44;5074341;28;20453;-76
2023/01/27 04:28:36;;;;;;;17.57;11.73;;;-0.70;90.90;;;-1.45;84.04;98164.22;5100856;28;20454;-77
2023/01/27 04:31:03;;;;;;;20.73;12.27;;;-0.70;90.10;;;-1.56;84.11;98159.84;5078551;28;20456;-76
2023/01/27 04:33:32;;;;;;;18.57;11.10;;;-0.70;90.30;;;-1.67;84.06;98175.84;5078442;28;20544;-76
2023/01/27 04:35:59;;;;;;;18.03;11.10;;;-0.80;90.00;;;-1.74;85.17;98189.63;5093482;28;21163;-75
2023/01/27 04:38:27;;;;;;;17.50;10.87;;;-1.00;90.50;;;-1.43;84.42;98191.41;5084697;28;20458;-76
2023/01/27 04:40:55;;;;;;;16.27;11.33;;;-0.80;90.80;;;-1.51;83.38;98184.13;5081076;28;20458;-76
2023/01/27 04:43:22;;;;;;;18.30;10.73;;;-0.80;90.10;;;-1.60;83.44;98196.38;5084612;28;20444;-76
2023/01/27 04:45:49;;;;;;;14.67;11.10;;;-0.80;89.50;;;-1.60;83.79;98184.94;5080922;28;20457;-77
2023/01/27 04:48:16;;;;;;;16.50;11.87;;;-0.80;89.50;;;-1.47;83.56;98196.13;5083753;28;20498;-77
2023/01/27 04:50:46;;;;;;;19.07;12.37;;;-0.80;90.20;;;-1.64;84.12;98184.38;5069630;28;20559;-76
2023/01/27 04:53:13;;;;;;;18.70;11.10;;;-0.80;89.10;;;-1.74;84.62;98173.75;5078762;28;20450;-76
2023/01/27 04:55:42;;;;;;;18.97;12.20;;;-1.00;90.40;;;-1.97;84.66;98188.13;5079581;28;20507;-76
2023/01/27 04:58:12;;;;;;;20.07;11.17;;;-1.10;90.50;;;-2.09;85.49;98176.78;5085163;28;20446;-76
2023/01/27 05:00:39;;;;;;;19.23;12.23;;;-1.20;90.90;;;-1.79;85.10;98181.22;5081312;28;20908;-76
2023/01/27 05:03:09;;;;;;;16.83;10.93;;;-1.10;91.40;;;-1.83;84.19;98184.28;5086927;28;20486;-76
2023/01/27 05:05:37;;;;;;;19.43;10.87;;;-1.10;90.70;;;-1.95;85.15;98202.06;5083538;28;20497;-74
2023/01/27 05:08:09;;;;;;;15.00;10.90;;;-1.20;90.80;;;-1.95;85.11;98180.88;5075964;28;20458;-75
2023/01/27 05:10:37;;;;;;;16.67;11.00;;;-1.20;91.10;;;-1.95;84.51;98191.47;5078650;28;20967;-77
2023/01/27 05:13:04;;;;;;;16.53;11.23;;;-1.20;90.80;;;-1.79;85.03;98193.66;5086353;28;20458;-77
2023/01/27 05:15:32;;;;;;;16.60;11.00;;;-1.10;91.40;;;-1.68;84.40;98182.13;5084476;28;20463;-75
2023/01/27 05:17:59;;;;;;;19.87;11.00;;;-1.00;91.00;;;-1.67;82.71;98141.41;5081912;28;20526;-77
2023/01/27 05:20:27;;;;;;;16.20;9.87;;;-0.90;90.60;;;-1.59;82.99;98174.19;5087069;28;20941;-77
2023/01/27 05:23:33;;;;;;;15.00;10.90;;;-0.90;88.70;;;-1.53;83.25;98180.78;5085781;28;20461;-76
2023/01/27 05:25:44;;;;;;;15.87;10.70;;;-0.90;88.90;;;-1.67;83.23;98181.16;5083999;28;20449;-78
2023/01/27 05:28:14;;;;;;;19.50;11.37;;;-0.90;88.50;;;-1.71;83.82;98189.38;5081525;28;20443;-77
2023/01/27 05:30:41;;;;;;;14.93;9.63;;;-0.90;88.80;;;-1.86;83.83;98199.47;5086575;28;20449;-75
2023/01/27 05:33:09;;;;;;;15.43;10.53;;;-1.00;88.80;;;-1.85;83.42;98200.31;5085000;28;20483;-75
2023/01/27 05:35:37;;;;;;;19.60;11.60;;;-1.10;89.30;;;-1.89;83.66;98190.97;5092054;28;20459;-75
2023/01/27 05:38:04;;;;;;;16.90;11.23;;;-1.10;89.10;;;-1.92;83.05;98200.00;5089976;28;20450;-74
2023/01/27 05:40:31;;;;;;;16.53;11.00;;;-1.10;88.50;;;-1.83;82.80;98211.63;5084721;28;20478;-73
2023/01/27 05:43:00;;;;;;;16.73;10.90;;;-1.10;89.20;;;-1.72;83.14;98219.50;5087956;28;20458;-75
2023/01/27 05:45:27;;;;;;;14.70;9.70;;;-1.00;87.50;;;-1.66;81.43;98228.72;5085902;28;20994;-75
2023/01/27 05:47:54;;;;;;;16.40;11.27;;;-0.90;85.50;;;-2.15;82.29;98141.88;5080963;28;20949;-75
2023/01/27 05:50:22;;;;;;;15.80;10.87;;;-0.90;86.50;;;-1.79;82.62;98225.44;5074370;28;20704;-75
2023/01/27 05:52:49;;;;;;;15.20;9.60;;;-1.00;86.40;;;-1.66;81.55;98217.28;5090204;28;20512;-75
2023/01/27 05:55:16;;;;;;;12.77;8.87;;;-0.90;86.30;;;-1.58;80.86;98230.72;5080373;28;20455;-77
2023/01/27 05:57:43;;;;;;;13.10;9.80;;;-0.90;85.10;;;-1.50;81.01;98233.53;5079471;28;20458;-76
2023/01/27 06:00:13;;;;;;;14.60;9.57;;;-0.90;85.10;;;-1.96;80.92;98163.31;5081173;28;20479;-72
2023/01/27 06:02:41;;;;;;;16.73;10.63;;;-0.80;85.00;;;-1.58;81.59;98228.06;5085109;28;20487;-72
2023/01/27 06:05:09;;;;;;;14.20;8.93;;;-0.90;84.80;;;-1.63;81.24;98227.59;5087027;28;20444;-73
2023/01/27 06:07:36;;;;;;;12.90;9.60;;;-0.90;86.10;;;-1.64;80.96;98236.53;5084041;28;20454;-72
2023/01/27 06:10:04;;;;;;;14.87;9.47;;;-1.00;86.10;;;-1.72;nan;98230.09;5090887;28;20437;-71
2023/01/27 06:12:31;;;;;;;12.80;9.10;;;-1.00;85.50;;;-1.43;80.29;98236.47;5106249;28;20462;-71
2023/01/27 06:14:59;;;;;;;13.60;9.43;;;-0.80;85.00;;;-1.38;80.29;98242.22;5103768;28;20466;-71
2023/01/27 06:17:27;;;;;;;16.97;10.50;;;-0.80;84.60;;;-1.67;80.86;98247.38;5101073;28;20498;-70
2023/01/27 06:19:54;;;;;;;15.67;10.20;;;-0.90;84.30;;;-1.65;80.38;98246.28;5103144;28;20458;-76
2023/01/27 06:22:22;;;;;;;13.20;9.37;;;-0.90;84.10;;;-1.46;80.30;98252.66;5097538;28;20446;-80
2023/01/27 06:24:49;;;;;;;13.83;9.93;;;-0.90;84.10;;;-1.67;80.93;98248.22;5095214;27;20475;-78
2023/01/27 06:27:16;;;;;;;15.97;10.80;;;-0.90;83.90;;;-1.76;80.40;98238.44;5086074;28;20473;-80
2023/01/27 06:29:43;;;;;;;14.20;10.03;;;-0.90;83.90;;;-1.56;80.84;98255.25;5081349;28;20484;-77
2023/01/27 06:32:11;;;;;;;15.73;10.87;;;-0.90;84.90;;;-1.45;80.38;98257.81;5092143;28;20452;-78
2023/01/27 06:34:41;;;;;;;15.67;10.60;;;-0.90;85.00;;;-1.53;80.19;98252.34;5086145;28;20512;-77
2023/01/27 06:37:09;;;;;;;17.80;10.07;;;-0.90;84.30;;;-1.34;79.10;98269.28;5082088;28;20492;-78
2023/01/27 06:39:36;;;;;;;16.63;9.87;;;-0.80;83.70;;;-1.24;79.32;98271.97;5082567;28;20942;-78
2023/01/27 06:42:03;;;;;;;16.20;10.13;;;-0.80;84.00;;;-1.33;78.81;98265.66;5082870;28;20446;-77
2023/01/27 06:44:31;;;;;;;15.90;9.40;;;-0.70;82.10;;;-1.38;79.62;98268.72;5076674;28;20494;-78
2023/01/27 06:46:58;;;;;;;14.10;9.00;;;-0.80;82.90;;;-1.30;79.22;98276.00;5071600;28;21006;-77
2023/01/27 06:49:25;;;;;;;14.60;9.50;;;-0.70;83.10;;;-1.26;79.24;98274.78;5080135;28;20464;-79
2023/01/27 06:51:54;;;;;;;15.40;9.90;;;-0.70;83.80;;;-1.22;78.52;98276.19;5081398;28;20478;-76
2023/01/27 06:54:21;;;;;;;15.30;9.90;;;-0.70;82.60;;;-1.56;77.81;98204.91;5079964;28;20478;-76
2023/01/27 06:56:49;;;;;;;14.53;8.77;;;-0.60;82.60;;;-1.28;79.38;98276.72;5073875;28;20977;-79
2023/01/27 06:59:16;;;;;;;15.33;9.70;;;-0.70;83.10;;;-1.45;79.11;98286.97;5084170;28;20447;-79
2023/01/27 07:01:43;;;;;;;17.33;10.60;;;-0.70;82.10;;;-1.19;81.40;98278.56;5080868;28;20471;-78
2023/01/27 07:04:10;;;;;;;15.73;8.90;;;-0.70;86.70;;;-1.11;79.36;98261.16;5079037;28;20501;-77
2023/01/27 07:06:37;;;;;;;20.27;10.50;;;-0.60;84.80;;;-1.07;78.51;98267.88;5083595;28;20458;-74
2023/01/27 07:09:06;;;;;;;16.57;10.53;;;-0.50;83.60;;;-1.07;78.06;98273.16;5086770;28;20465;-77
2023/01/27 07:11:33;;;;;;;14.70;9.80;;;-0.50;82.90;;;-0.95;77.64;98274.75;5080372;28;20608;-77
2023/01/27 07:14:01;;;;;;;16.00;10.63;;;-0.50;81.80;;;-0.99;77.52;98268.00;5077084;28;20815;-74
2023/01/27 07:16:29;;;;;;;17.00;11.30;;;-0.50;81.60;;;-1.08;77.20;98269.66;5081126;28;20952;-77
2023/01/27 07:18:56;;;;;;;16.93;10.30;;;-0.40;80.30;;;-1.08;77.53;98280.28;5082214;28;21294;-78
2023/01/27 07:21:24;;;;;;;16.10;9.97;;;-0.50;80.30;;;-1.03;76.90;98263.97;5075609;28;20557;-77
2023/01/27 07:23:51;;;;;;;14.10;10.10;;;-0.40;80.10;;;-1.16;77.27;98280.94;5073707;28;20459;-79
2023/01/27 07:26:20;;;;;;;17.63;10.73;;;-0.40;80.40;;;-1.03;76.47;98266.59;5075740;28;20459;-77
2023/01/27 07:28:47;;;;;;;19.00;10.20;;;-0.40;79.80;;;-0.92;76.75;98290.38;5082038;28;20457;-77
2023/01/27 07:31:15;;;;;;;14.40;10.23;;;-0.40;79.90;;;-1.06;76.72;98293.41;5083429;28;20450;-78
2023/01/27 07:33:42;;;;;;;19.20;10.90;;;-0.40;79.60;;;-1.20;76.07;98257.50;5086122;28;20462;-77
2023/01/27 07:36:10;;;;;;;15.20;10.93;;;-0.40;79.20;;;-0.87;76.38;98288.16;5073029;28;20919;-79
2023/01/27 07:38:37;;;;;;;21.30;12.00;;;-0.30;79.60;;;-0.94;76.45;98292.34;5089113;28;20458;-75
2023/01/27 07:41:05;;;;;;;19.00;11.73;;;-0.40;79.60;;;-0.96;77.09;98302.25;5076793;28;20551;-79
2023/01/27 07:43:35;;;;;;;18.17;11.30;;;-0.40;80.20;;;-0.84;76.43;98296.81;5094739;28;20455;-79
2023/01/27 07:46:03;;;;;;;17.20;10.60;;;-0.30;79.80;;;-0.66;76.40;98304.97;5078188;28;20455;-74
2023/01/27 07:48:30;;;;;;;16.67;11.73;;;-0.20;79.60;;;-0.81;76.37;98305.34;5081664;28;20463;-77
2023/01/27 07:50:57;;;;;;;16.93;10.70;;;-0.20;79.70;;;-0.77;76.20;98306.75;5078930;28;20995;-77
2023/01/27 07:53:24;;;;;;;16.90;10.17;;;-0.20;79.20;;;-0.63;76.92;98304.69;5083265;28;20504;-78
2023/01/27 07:55:52;;;;;;;18.97;11.43;;;-0.10;80.10;;;-0.69;76.26;98308.72;5081788;28;20454;-79
2023/01/27 07:58:19;;;;;;;19.80;10.30;;;-0.10;79.50;;;-0.58;75.49;98313.91;5083257;28;20962;-78
2023/01/27 08:00:47;;;;;;;16.63;10.30;;;0.00;79.10;;;-0.72;75.65;98306.34;5079483;28;20477;-78
2023/01/27 08:03:23;;;;;;;21.60;12.33;;;0.00;78.90;;;-0.58;75.19;98313.91;5085339;28;20463;-78
2023/01/27 08:05:50;;;;;;;15.87;10.50;;;0.00;78.60;;;-0.64;75.12;98317.13;5074913;28;20458;-78
2023/01/27 08:08:18;;;;;;;14.60;9.13;;;0.00;78.10;;;-0.50;75.14;98323.03;5093020;28;21003;-77
2023/01/27 08:10:48;;;;;;;15.37;10.03;;;0.10;78.30;;;-0.49;74.77;98319.41;5083681;28;20458;-78
2023/01/27 08:13:15;;;;;;;16.17;10.70;;;0.10;77.90;;;-0.45;74.92;98323.44;5078422;28;20458;-78
2023/01/27 08:15:42;;;;;;;14.70;9.97;;;0.10;78.20;;;-0.34;74.53;98314.50;5079805;28;20458;-79
2023/01/27 08:18:11;;;;;;;13.40;9.60;;;0.20;78.00;;;-0.59;75.55;98301.63;5083112;28;20454;-79
2023/01/27 08:20:38;;;;;;;15.27;10.70;;;0.10;78.40;;;-0.46;76.31;98304.00;5087396;28;20844;-76
2023/01/27 08:23:05;;;;;;;17.13;10.40;;;0.20;78.80;;;-0.27;75.19;98310.34;5076109;28;20456;-78
2023/01/27 08:25:33;;;;;;;15.90;10.33;;;0.20;78.50;;;-0.04;74.61;98310.91;5077765;28;20482;-76
2023/01/27 08:28:00;;;;;;;17.17;10.60;;;0.40;78.40;;;0.15;73.38;98293.25;5078476;28;20838;-77
2023/01/27 08:30:27;;;;;;;18.10;10.53;;;0.50;77.80;;;-0.08;73.25;98288.22;5077445;28;20467;-77
2023/01/27 08:32:55;;;;;;;17.70;11.00;;;0.50;76.60;;;0.20;73.31;98301.63;5075672;28;20459;-83
2023/01/27 08:35:24;;;;;;;15.63;11.50;;;0.60;77.00;;;0.28;72.54;98300.91;5083445;28;20459;-74
2023/01/27 08:37:51;;;;;;;18.07;10.80;;;0.70;76.90;;;-0.18;72.44;98258.19;5080954;28;20467;-76
2023/01/27 08:40:18;;;;;;;16.77;10.20;;;0.70;76.60;;;0.07;72.38;98309.06;5084652;28;20479;-77
2023/01/27 08:42:46;;;;;;;15.17;10.63;;;0.70;76.50;;;0.12;72.82;98304.16;5093952;27;20500;-76
2023/01/27 08:45:13;;;;;;;16.80;10.93;;;0.70;76.50;;;-0.07;72.74;98319.16;5085591;28;20450;-76
2023/01/27 08:47:40;;;;;;;16.17;10.93;;;0.60;76.00;;;-0.29;73.02;98323.75;5077111;28;20519;-78
2023/01/27 08:50:09;;;;;;;15.70;10.80;;;0.50;75.90;;;-0.32;74.20;98312.53;5076117;28;20922;-77
2023/01/27 08:52:38;;;;;;;13.47;9.10;;;0.40;76.60;;;-0.25;74.02;98304.88;5085780;28;20450;-85
2023/01/27 08:55:07;;;;;;;16.63;10.17;;;0.40;77.00;;;-0.22;73.67;98315.22;5089521;28;20830;-75
2023/01/27 08:57:35;;;;;;;16.30;9.70;;;0.50;76.90;;;0.01;73.86;98312.28;5080733;28;20459;-77
2023/01/27 09:00:05;;;;;;;15.23;10.70;;;0.50;77.00;;;-0.31;74.24;98277.91;5078395;28;20459;-74
2023/01/27 09:02:32;;;;;;;13.07;9.37;;;0.60;77.00;;;-0.08;73.82;98313.97;5077763;28;20478;-84
2023/01/27 09:04:59;;;;;;;15.87;9.83;;;0.60;76.70;;;-0.12;73.83;98318.72;5067782;28;20455;-74
2023/01/27 09:07:27;;;;;;;16.23;10.80;;;0.60;76.40;;;0.07;73.60;98319.69;5078308;28;20462;-74
2023/01/27 09:09:55;;;;;;;14.20;10.57;;;0.60;76.70;;;0.20;73.11;98322.88;5069709;28;21184;-78
2023/01/27 09:12:23;;;;;;;16.80;10.77;;;0.70;76.60;;;0.25;72.34;98310.03;5077646;28;20451;-74
2023/01/27 09:14:50;;;;;;;14.57;9.30;;;0.70;76.20;;;0.07;71.82;98311.72;5091958;28;20459;-72
2023/01/27 09:17:18;;;;;;;15.43;9.87;;;0.80;75.40;;;0.01;72.09;98320.25;5121579;28;20479;-72
2023/01/27 09:19:46;;;;;;;16.10;9.40;;;0.60;75.60;;;-0.21;72.48;98324.88;5097370;28;20441;-73
2023/01/27 09:22:13;;;;;;;13.47;9.30;;;0.50;75.40;;;-0.33;73.07;98322.34;5093833;28;20483;-74
2023/01/27 09:24:40;;;;;;;15.00;10.07;;;0.40;75.50;;;0.02;72.10;98327.25;5079385;28;20462;-73
2023/01/27 09:27:09;;;;;;;14.53;8.70;;;0.50;75.80;;;0.36;71.44;98324.97;5096620;28;20446;-74
2023/01/27 09:29:36;;;;;;;12.87;8.83;;;0.80;75.70;;;0.24;71.24;98329.63;5078679;28;20509;-74
2023/01/27 09:32:03;;;;;;;14.30;9.33;;;0.80;75.20;;;0.16;71.11;98341.94;5076332;28;20459;-75
2023/01/27 09:34:31;;;;;;;13.90;10.03;;;0.80;74.90;;;-0.03;71.83;98338.28;5077425;28;20798;-73
2023/01/27 09:37:07;;;;;;;13.50;9.10;;;0.70;75.00;;;0.12;71.72;98344.03;5079817;28;20467;-74
2023/01/27 09:39:40;;;;;;;13.77;9.57;;;0.80;75.00;;;0.22;70.48;98336.03;5080997;28;21202;-74
2023/01/27 09:42:33;;;;;;;11.10;7.90;;;0.90;74.80;;;0.16;70.95;98344.59;5076059;28;20497;-73
2023/01/27 09:45:28;;;;;;;15.83;9.13;;;0.80;74.40;;;0.21;70.88;98329.88;5076735;28;20539;-74
2023/01/27 09:48:16;;;;;;;12.53;8.80;;;0.80;74.50;;;0.21;70.95;98350.31;5079230;28;20451;-72
2023/01/27 09:50:46;;;;;;;11.20;8.43;;;0.80;74.50;;;0.24;70.90;98350.88;5072087;28;20551;-72
2023/01/27 09:54:08;;;;;;;13.20;8.20;;;0.90;74.70;;;0.30;70.70;98348.63;5075696;28;20931;-71
2023/01/27 09:56:48;;;;;;;12.07;8.63;;;1.00;74.60;;;0.25;71.44;98352.56;5080032;28;20994;-73
2023/01/27 09:59:39;;;;;;;13.90;9.00;;;0.90;74.50;;;0.34;70.20;98355.31;5076208;28;20801;-74
2023/01/27 10:02:20;;;;;;;14.77;9.33;;;1.00;74.10;;;0.54;69.95;98357.00;5082728;28;20498;-73
2023/01/27 10:05:14;;;;;;;14.23;8.07;;;1.10;74.70;;;0.74;69.35;98354.28;5069344;28;20460;-73
2023/01/27 10:08:04;;;;;;;10.73;7.83;;;1.30;74.00;;;0.65;69.17;98352.47;5073052;28;20465;-74
2023/01/27 10:10:46;;;;;;;13.20;8.37;;;1.30;73.50;;;0.53;68.87;98311.94;5079894;28;20474;-73
2023/01/27 10:13:31;;;;;;;13.87;9.03;;;1.30;73.30;;;0.81;68.94;98347.38;5071882;28;20508;-74
2023/01/27 10:16:22;;;;;;;10.97;7.50;;;1.40;73.60;;;0.72;68.60;98347.41;5075835;28;20540;-75
2023/01/27 10:19:31;;;;;;;14.90;8.87;;;1.30;72.80;;;0.68;68.55;98358.34;5077134;28;20996;-74
2023/01/27 10:22:13;;;;;;;13.20;8.63;;;1.40;72.80;;;0.54;69.44;98358.81;5036642;28;20835;-74
2023/01/27 10:24:58;;;;;;;13.87;8.10;;;1.20;73.00;;;0.58;69.19;98359.38;5088253;28;20965;-74
2023/01/27 10:27:27;;;;;;;17.33;9.30;;;1.40;73.10;;;0.59;69.63;98353.88;5087676;28;20565;-74
2023/01/27 10:29:58;;;;;;;12.60;8.40;;;1.30;73.40;;;0.51;69.31;98353.78;5089451;28;20447;-74
2023/01/27 10:32:33;;;;;;;13.07;9.20;;;1.30;73.00;;;0.58;69.69;98362.03;5104346;28;20449;-74
2023/01/27 10:35:15;;;;;;;10.63;8.23;;;1.30;73.00;;;0.78;69.03;98363.66;5086624;28;20657;-74
2023/01/27 10:37:55;;;;;;;13.13;8.80;;;1.40;73.20;;;0.80;68.86;98361.69;5076418;28;20476;-74
2023/01/27 10:40:34;;;;;;;11.73;7.70;;;1.40;73.20;;;0.99;67.74;98360.78;5084110;28;20469;-75
2023/01/27 10:43:09;;;;;;;12.43;8.10;;;1.50;72.20;;;0.69;68.62;98361.88;5073264;28;20982;-72
2023/01/27 10:45:42;;;;;;;12.43;8.00;;;1.40;72.20;;;0.75;68.90;98363.09;5079262;28;20465;-72
2023/01/27 10:48:33;;;;;;;14.00;9.37;;;1.40;72.90;;;0.72;69.37;98358.06;5080763;28;20622;-76
2023/01/27 10:51:04;;;;;;;13.27;8.00;;;1.30;72.80;;;0.91;68.98;98358.03;5080610;28;20950;-73
2023/01/27 10:53:40;;;;;;;12.40;8.37;;;1.40;73.20;;;0.78;68.92;98360.16;5081200;28;20543;-74
2023/01/27 10:56:13;;;;;;;11.90;7.33;;;1.40;72.80;;;0.95;68.44;98353.22;5077104;28;20489;-76
2023/01/27 10:58:53;;;;;;;12.80;8.27;;;1.50;72.80;;;1.07;67.74;98348.59;5082612;28;20462;-72